Time;durP1;ratioP1;P1;durP2;ratioP2;P2;SDS_P1;SDS_P2;PMS_P1;PMS_P2;Temp;Humidity;BMP_temperature;BMP_pressure;BME280_temperature;BME280_humidity;BME280_pressure;Samples;Min_cycle;Max_cycle;Signal;HPM_P1;HPM_P2
2022/04/11 00:01:54;;;;;;;18.75;13.55;;;;;;;;;;10467865;28;20031;-73
2022/04/11 00:06:54;;;;;;;14.53;12.33;;;;;;;;;;10467310;28;20580;-73
2022/04/11 00:11:56;;;;;;;21.20;13.10;;;;;;;;;;10467320;28;20033;-71
2022/04/11 00:16:56;;;;;;;18.60;14.25;;;;;;;;;;10468391;28;20089;-74
2022/04/11 00:21:57;;;;;;;18.17;12.30;;;;;;;;;;10467480;28;20090;-71
2022/04/11 00:26:57;;;;;;;20.38;14.23;;;;;;;;;;10485423;28;20035;-71
2022/04/11 00:31:57;;;;;;;18.15;12.55;;;;;;;;;;10467759;28;20566;-71
2022/04/11 00:36:57;;;;;;;15.77;12.43;;;;;;;;;;10466399;28;20069;-72
2022/04/11 00:41:58;;;;;;;19.58;11.88;;;;;;;;;;10463177;28;20044;-69
2022/04/11 00:46:58;;;;;;;14.10;10.00;;;;;;;;;;10467161;28;20021;-73
2022/04/11 00:51:58;;;;;;;13.32;9.82;;;;;;;;;;10486289;28;20044;-70
2022/04/11 00:56:59;;;;;;;13.38;9.38;;;;;;;;;;10428913;28;20036;-74
2022/04/11 01:02:02;;;;;;;16.63;10.18;;;;;;;;;;10425627;28;20021;-69
2022/04/11 01:07:02;;;;;;;12.30;8.70;;;;;;;;;;10443826;28;20158;-73
2022/04/11 01:12:03;;;;;;;13.32;8.82;;;;;;;;;;10444156;28;20036;-70
2022/04/11 01:17:03;;;;;;;18.55;10.10;;;;;;;;;;10426171;28;20028;-70
2022/04/11 01:22:04;;;;;;;9.10;7.97;;;;;;;;;;10444054;28;20028;-71
2022/04/11 01:27:04;;;;;;;15.30;7.78;;;;;;;;;;10426547;28;20601;-73
2022/04/11 01:32:05;;;;;;;11.88;9.43;;;;;;;;;;10443034;28;20116;-73
2022/04/11 01:37:05;;;;;;;12.18;10.90;;;;;;;;;;10443824;28;20028;-72
2022/04/11 01:42:05;;;;;;;11.75;9.90;;;;;;;;;;10425884;28;20163;-75
2022/04/11 01:47:06;;;;;;;10.65;7.38;;;;;;;;;;10426304;28;20083;-71
2022/04/11 01:52:06;;;;;;;9.70;8.07;;;;;;;;;;10425533;28;20128;-72
2022/04/11 01:57:07;;;;;;;11.00;9.23;;;;;;;;;;10425921;28;20013;-73
2022/04/11 02:02:07;;;;;;;10.30;7.13;;;;;;;;;;10425405;28;20484;-71
2022/04/11 02:07:08;;;;;;;10.38;6.40;;;;;;;;;;10425221;28;20068;-72
2022/04/11 02:12:08;;;;;;;12.35;8.27;;;;;;;;;;10409750;28;20029;-72
2022/04/11 02:17:08;;;;;;;11.32;7.85;;;;;;;;;;10432820;28;20116;-72
2022/04/11 02:22:09;;;;;;;10.85;7.53;;;;;;;;;;10432432;28;20032;-74
2022/04/11 02:27:09;;;;;;;11.90;7.00;;;;;;;;;;10433179;28;20065;-71
2022/04/11 02:32:10;;;;;;;9.30;8.50;;;;;;;;;;10433943;28;20400;-77
2022/04/11 02:37:10;;;;;;;8.52;6.53;;;;;;;;;;10433302;28;20021;-70
2022/04/11 02:42:10;;;;;;;10.50;5.57;;;;;;;;;;10448361;28;20116;-70
2022/04/11 02:47:10;;;;;;;13.30;5.85;;;;;;;;;;10433580;28;20033;-71
2022/04/11 02:52:11;;;;;;;5.80;5.20;;;;;;;;;;10437151;28;20474;-71
2022/04/11 02:57:11;;;;;;;9.17;6.50;;;;;;;;;;10453166;28;20035;-75
2022/04/11 03:02:11;;;;;;;7.93;7.13;;;;;;;;;;10431643;28;20025;-73
2022/04/11 03:07:12;;;;;;;7.18;5.70;;;;;;;;;;10430576;28;20053;-71
2022/04/11 03:12:12;;;;;;;8.30;6.57;;;;;;;;;;10430456;28;20039;-70
2022/04/11 03:17:12;;;;;;;10.32;6.43;;;;;;;;;;10430478;28;20333;-71
2022/04/11 03:22:12;;;;;;;7.97;5.93;;;;;;;;;;10430091;28;20016;-73
2022/04/11 03:27:13;;;;;;;8.40;6.90;;;;;;;;;;10446865;28;20484;-74
2022/04/11 03:32:13;;;;;;;11.25;6.50;;;;;;;;;;10429646;28;20028;-70
2022/04/11 03:37:13;;;;;;;9.10;7.70;;;;;;;;;;10446325;28;20020;-71
2022/04/11 03:42:14;;;;;;;13.00;9.43;;;;;;;;;;10446955;28;20345;-70
2022/04/11 03:47:14;;;;;;;9.27;7.22;;;;;;;;;;10452964;28;20016;-72
2022/04/11 03:52:14;;;;;;;12.10;7.60;;;;;;;;;;10469056;28;20067;-77
2022/04/11 03:57:14;;;;;;;11.93;9.73;;;;;;;;;;10463254;28;20033;-72
2022/04/11 04:02:15;;;;;;;13.77;9.15;;;;;;;;;;10468456;28;20093;-73
2022/04/11 04:07:15;;;;;;;12.10;10.70;;;;;;;;;;10467537;28;20048;-72
2022/04/11 04:12:19;;;;;;;19.13;9.75;;;;;;;;;;10468606;28;20028;-71
2022/04/11 04:17:19;;;;;;;16.67;12.60;;;;;;;;;;10486597;28;20017;-73
2022/04/11 04:22:20;;;;;;;15.47;8.73;;;;;;;;;;10467395;28;20032;-72
2022/04/11 04:27:20;;;;;;;10.30;8.05;;;;;;;;;;10444473;28;20025;-75
2022/04/11 04:32:22;;;;;;;22.77;10.23;;;;;;;;;;10448914;28;20028;-71
2022/04/11 04:37:22;;;;;;;13.57;8.80;;;;;;;;;;10484563;28;20445;-73
2022/04/11 04:42:23;;;;;;;12.13;8.43;;;;;;;;;;10466634;28;20082;-71
2022/04/11 04:47:25;;;;;;;13.45;9.38;;;;;;;;;;10429166;28;20092;-73
2022/04/11 04:52:25;;;;;;;16.85;9.93;;;;;;;;;;10425932;28;20435;-71
2022/04/11 04:57:26;;;;;;;17.70;11.10;;;;;;;;;;10426773;28;20058;-72
2022/04/11 05:02:34;;;;;;;11.80;10.63;;;;;;;;;;10426288;28;20094;-71
2022/04/11 05:07:35;;;;;;;12.50;10.07;;;;;;;;;;10460676;28;20584;-72
2022/04/11 05:12:39;;;;;;;14.40;9.73;;;;;;;;;;10468725;28;20127;-70
2022/04/11 05:17:40;;;;;;;17.60;10.75;;;;;;;;;;10485159;28;20052;-71
2022/04/11 05:22:40;;;;;;;11.82;8.68;;;;;;;;;;10466603;28;20661;-71
2022/04/11 05:27:40;;;;;;;11.73;9.37;;;;;;;;;;10466311;28;20502;-73
2022/04/11 05:32:40;;;;;;;13.45;9.68;;;;;;;;;;10466474;28;20029;-74
2022/04/11 05:37:41;;;;;;;15.15;10.15;;;;;;;;;;10466620;28;20388;-73
2022/04/11 05:42:41;;;;;;;13.00;7.80;;;;;;;;;;10465269;28;20492;-72
2022/04/11 05:47:42;;;;;;;10.65;7.40;;;;;;;;;;10467734;28;20058;-75
2022/04/11 05:52:42;;;;;;;15.00;8.63;;;;;;;;;;10492414;28;20032;-72
2022/04/11 05:57:43;;;;;;;14.63;8.53;;;;;;;;;;10473940;28;20031;-72
2022/04/11 06:02:43;;;;;;;13.45;8.60;;;;;;;;;;10492439;28;20028;-73
2022/04/11 06:07:44;;;;;;;14.90;8.93;;;;;;;;;;10473143;28;20135;-71
2022/04/11 06:12:44;;;;;;;14.48;8.18;;;;;;;;;;10473809;28;20123;-71
2022/04/11 06:17:44;;;;;;;11.07;6.77;;;;;;;;;;10472519;28;20456;-72
2022/04/11 06:22:46;;;;;;;11.25;8.13;;;;;;;;;;10473362;28;20415;-71
2022/04/11 06:27:46;;;;;;;13.55;6.88;;;;;;;;;;10491150;28;20135;-69
2022/04/11 06:32:46;;;;;;;12.25;7.60;;;;;;;;;;10472733;28;20033;-74
2022/04/11 06:37:49;;;;;;;12.55;8.82;;;;;;;;;;10472496;28;20036;-72
2022/04/11 06:42:49;;;;;;;12.48;6.72;;;;;;;;;;10472354;28;20028;-70
2022/04/11 06:47:49;;;;;;;13.32;8.23;;;;;;;;;;10490579;28;20013;-75
2022/04/11 06:52:49;;;;;;;19.00;7.40;;;;;;;;;;10472323;28;20488;-70
2022/04/11 06:57:50;;;;;;;19.98;7.93;;;;;;;;;;10472077;28;20020;-71
2022/04/11 07:02:50;;;;;;;11.20;6.40;;;;;;;;;;10471818;28;20025;-71
2022/04/11 07:07:50;;;;;;;10.17;5.87;;;;;;;;;;10471883;28;20048;-72
2022/04/11 07:12:51;;;;;;;11.32;6.38;;;;;;;;;;10489615;28;20467;-75
2022/04/11 07:17:51;;;;;;;6.72;4.35;;;;;;;;;;10472264;28;20517;-71
2022/04/11 07:22:51;;;;;;;9.07;4.53;;;;;;;;;;10471270;28;20044;-72
2022/04/11 07:27:52;;;;;;;10.27;4.82;;;;;;;;;;10471197;28;20050;-75
2022/04/11 07:32:52;;;;;;;10.23;4.30;;;;;;;;;;10488865;28;20028;-70
2022/04/11 07:37:52;;;;;;;7.63;4.07;;;;;;;;;;10488251;28;20017;-71
2022/04/11 07:42:53;;;;;;;5.20;3.83;;;;;;;;;;10471096;28;20564;-71
2022/04/11 07:47:53;;;;;;;5.80;3.65;;;;;;;;;;10470306;28;20143;-71
2022/04/11 07:52:53;;;;;;;8.05;4.65;;;;;;;;;;10469452;28;20039;-71
2022/04/11 07:57:54;;;;;;;8.98;3.70;;;;;;;;;;10469701;28;20024;-71
2022/04/11 08:02:55;;;;;;;7.75;4.57;;;;;;;;;;10487125;28;20107;-72
2022/04/11 08:07:55;;;;;;;11.57;5.25;;;;;;;;;;10468691;28;20059;-71
2022/04/11 08:12:56;;;;;;;4.57;4.00;;;;;;;;;;10468772;28;20032;-69
2022/04/11 08:17:57;;;;;;;8.10;3.85;;;;;;;;;;10469627;28;20115;-72
2022/04/11 08:22:57;;;;;;;8.90;4.97;;;;;;;;;;10468610;28;20028;-70
2022/04/11 08:27:57;;;;;;;5.70;3.70;;;;;;;;;;10468275;28;20688;-71
2022/04/11 08:32:58;;;;;;;13.07;5.22;;;;;;;;;;10468593;28;20021;-72
2022/04/11 08:37:58;;;;;;;7.65;3.63;;;;;;;;;;10468278;28;20028;-78
2022/04/11 08:43:02;;;;;;;5.15;3.78;;;;;;;;;;10468000;28;20127;-71
2022/04/11 08:48:02;;;;;;;11.73;4.22;;;;;;;;;;10467235;28;20082;-73
2022/04/11 08:53:03;;;;;;;6.63;4.53;;;;;;;;;;10467765;28;20029;-70
2022/04/11 08:58:03;;;;;;;6.50;4.20;;;;;;;;;;10467738;28;20405;-72
2022/04/11 09:03:05;;;;;;;8.80;6.18;;;;;;;;;;10467521;28;20024;-72
2022/04/11 09:08:06;;;;;;;6.35;4.97;;;;;;;;;;10467005;28;20135;-72
2022/04/11 09:13:07;;;;;;;15.32;5.75;;;;;;;;;;10467798;28;20032;-71
2022/04/11 09:18:07;;;;;;;7.07;5.75;;;;;;;;;;10467390;28;20025;-71
2022/04/11 09:23:18;;;;;;;9.40;6.05;;;;;;;;;;10470024;28;20024;-70
2022/04/11 09:28:20;;;;;;;11.18;6.18;;;;;;;;;;10494448;28;20040;-71
2022/04/11 09:33:21;;;;;;;9.25;6.38;;;;;;;;;;10475158;28;20073;-75
2022/04/11 09:38:21;;;;;;;11.33;7.47;;;;;;;;;;10475338;28;20012;-71
2022/04/11 09:43:25;;;;;;;10.37;6.20;;;;;;;;;;10475224;28;20166;-75
2022/04/11 09:48:27;;;;;;;7.75;6.95;;;;;;;;;;10474638;28;20025;-70
2022/04/11 09:53:32;;;;;;;14.85;7.50;;;;;;;;;;10458315;28;20028;-76
2022/04/11 09:58:33;;;;;;;8.93;6.10;;;;;;;;;;10473839;28;20024;-71
2022/04/11 10:03:33;;;;;;;6.25;5.03;;;;;;;;;;10474374;28;20392;-72
2022/04/11 10:08:34;;;;;;;8.88;5.15;;;;;;;;;;10473921;28;20050;-72
2022/04/11 10:13:36;;;;;;;10.93;5.30;;;;;;;;;;10491576;28;20515;-70
2022/04/11 10:18:36;;;;;;;16.83;7.05;;;;;;;;;;10473243;28;20396;-72
2022/04/11 10:23:47;;;;;;;13.52;4.32;;;;;;;;;;10473236;28;20024;-73
2022/04/11 10:28:48;;;;;;;8.90;3.95;;;;;;;;;;10473620;28;20028;-72
2022/04/11 10:33:50;;;;;;;7.90;5.10;;;;;;;;;;10490461;28;20472;-74
2022/04/11 10:39:09;;;;;;;8.75;3.42;;;;;;;;;;10455818;28;20079;-72
2022/04/11 10:44:29;;;;;;;8.85;3.90;;;;;;;;;;10473061;28;20029;-72
2022/04/11 10:49:30;;;;;;;6.30;3.40;;;;;;;;;;10472069;28;20032;-71
2022/04/11 10:54:45;;;;;;;6.25;3.90;;;;;;;;;;10490038;28;20024;-72
2022/04/11 11:00:17;;;;;;;10.52;5.38;;;;;;;;;;10472086;28;20013;-72
2022/04/11 11:05:36;;;;;;;6.93;5.18;;;;;;;;;;10454895;28;20024;-71
2022/04/11 11:10:57;;;;;;;7.10;3.95;;;;;;;;;;10446419;28;20053;-71
2022/04/11 11:15:58;;;;;;;9.57;4.70;;;;;;;;;;10447418;28;20025;-71
2022/04/11 11:20:59;;;;;;;5.68;4.65;;;;;;;;;;10446200;28;20040;-72
2022/04/11 11:26:09;;;;;;;9.60;4.70;;;;;;;;;;10446736;28;20051;-71
2022/04/11 11:31:10;;;;;;;6.38;4.35;;;;;;;;;;10445823;28;20025;-71
2022/04/11 11:36:10;;;;;;;7.75;4.18;;;;;;;;;;10445639;28;20028;-71
2022/04/11 11:41:10;;;;;;;7.67;4.27;;;;;;;;;;10445632;28;20021;-73
2022/04/11 11:46:11;;;;;;;5.57;4.18;;;;;;;;;;10445016;28;20266;-71
2022/04/11 11:51:12;;;;;;;4.47;4.05;;;;;;;;;;10445681;28;20025;-71
2022/04/11 11:56:12;;;;;;;6.70;3.95;;;;;;;;;;10445868;28;20021;-73
2022/04/11 12:01:13;;;;;;;6.63;4.10;;;;;;;;;;10446411;28;20576;-72
2022/04/11 12:06:22;;;;;;;4.05;3.30;;;;;;;;;;10445485;28;20556;-71
2022/04/11 12:11:26;;;;;;;5.68;3.65;;;;;;;;;;10445520;28;20041;-75
2022/04/11 12:16:27;;;;;;;4.90;3.67;;;;;;;;;;10444603;28;20037;-71
2022/04/11 12:21:45;;;;;;;8.13;3.92;;;;;;;;;;10444380;28;20029;-72
2022/04/11 12:26:46;;;;;;;5.45;3.28;;;;;;;;;;10444003;28;20025;-72
2022/04/11 12:31:54;;;;;;;6.18;3.03;;;;;;;;;;10450947;28;20044;-71
2022/04/11 12:36:58;;;;;;;7.18;5.40;;;;;;;;;;10443331;28;20017;-71
2022/04/11 12:41:59;;;;;;;3.63;3.13;;;;;;;;;;10442996;28;20024;-70
2022/04/11 12:47:00;;;;;;;6.55;4.00;;;;;;;;;;10443340;28;20593;-72
2022/04/11 12:52:02;;;;;;;5.10;3.60;;;;;;;;;;10442653;28;20025;-72
2022/04/11 12:57:02;;;;;;;10.98;3.95;;;;;;;;;;10442657;28;20465;-71
2022/04/11 13:02:12;;;;;;;3.85;3.40;;;;;;;;;;10429987;28;20025;-70
2022/04/11 13:07:12;;;;;;;6.15;4.50;;;;;;;;;;10406608;28;20127;-76
2022/04/11 13:12:14;;;;;;;6.30;3.47;;;;;;;;;;10465933;28;20419;-76
2022/04/11 13:22:33;;;;;;;4.60;3.88;;;;;;;;;;10476670;28;20017;-75
2022/04/11 13:27:33;;;;;;;5.07;4.20;;;;;;;;;;10446181;28;20029;-71
2022/04/11 13:32:33;;;;;;;9.45;3.53;;;;;;;;;;10466473;28;20025;-71
2022/04/11 13:37:34;;;;;;;6.00;3.58;;;;;;;;;;10465887;28;20143;-74
2022/04/11 13:42:35;;;;;;;7.07;3.50;;;;;;;;;;10483172;28;20024;-71
2022/04/11 13:47:36;;;;;;;3.95;3.60;;;;;;;;;;10465935;28;20021;-70
2022/04/11 13:52:38;;;;;;;6.53;3.87;;;;;;;;;;10451121;28;20474;-71
2022/04/11 13:57:39;;;;;;;5.25;3.65;;;;;;;;;;10465633;28;20804;-76
2022/04/11 14:02:39;;;;;;;5.30;3.85;;;;;;;;;;10465997;28;20104;-74
2022/04/11 14:07:40;;;;;;;7.67;4.13;;;;;;;;;;10465580;28;20992;-73
2022/04/11 14:12:40;;;;;;;3.80;3.33;;;;;;;;;;10473446;28;20163;-71
2022/04/11 14:17:41;;;;;;;7.93;4.82;;;;;;;;;;10473330;28;20024;-74
2022/04/11 14:22:41;;;;;;;8.10;4.18;;;;;;;;;;10463369;28;20418;-72
2022/04/11 14:27:41;;;;;;;8.52;4.25;;;;;;;;;;10447621;28;20036;-73
2022/04/11 14:32:42;;;;;;;4.68;3.72;;;;;;;;;;10430909;28;20028;-76
2022/04/11 14:37:45;;;;;;;6.10;4.10;;;;;;;;;;10414310;28;20017;-72
2022/04/11 14:42:45;;;;;;;5.90;3.47;;;;;;;;;;10450471;28;20154;-75
2022/04/11 14:47:46;;;;;;;4.78;3.88;;;;;;;;;;10430868;28;20257;-71
2022/04/11 14:52:46;;;;;;;5.63;3.63;;;;;;;;;;10430168;28;20437;-67
2022/04/11 14:57:47;;;;;;;7.00;3.67;;;;;;;;;;10444701;28;20031;-69
2022/04/11 15:02:47;;;;;;;6.80;4.15;;;;;;;;;;10471646;28;20263;-70
2022/04/11 15:07:47;;;;;;;5.20;3.60;;;;;;;;;;10460790;28;20048;-71
2022/04/11 15:12:48;;;;;;;11.45;3.85;;;;;;;;;;10430134;28;20542;-69
2022/04/11 15:17:48;;;;;;;6.33;3.67;;;;;;;;;;10429888;28;20027;-71
2022/04/11 15:22:48;;;;;;;4.47;3.47;;;;;;;;;;10428300;28;20472;-71
2022/04/11 15:27:49;;;;;;;10.95;3.10;;;;;;;;;;10429175;28;20120;-75
2022/04/11 15:32:50;;;;;;;6.70;3.22;;;;;;;;;;10428880;28;20024;-75
2022/04/11 15:37:50;;;;;;;4.45;2.63;;;;;;;;;;10429328;28;20032;-70
2022/04/11 15:42:51;;;;;;;6.93;4.82;;;;;;;;;;10429547;28;20509;-70
2022/04/11 15:47:51;;;;;;;7.30;4.67;;;;;;;;;;10428448;28;20028;-70
2022/04/11 15:52:52;;;;;;;10.80;5.30;;;;;;;;;;10446683;28;20349;-73
2022/04/11 15:57:52;;;;;;;6.40;4.85;;;;;;;;;;10448077;28;20499;-75
2022/04/11 16:02:53;;;;;;;13.10;5.43;;;;;;;;;;10468889;28;20488;-70
2022/04/11 16:07:53;;;;;;;7.78;5.75;;;;;;;;;;10468406;28;20129;-70
2022/04/11 16:12:53;;;;;;;10.33;5.83;;;;;;;;;;10487035;28;20111;-71
2022/04/11 16:17:54;;;;;;;9.20;5.63;;;;;;;;;;10487034;28;20020;-72
2022/04/11 16:22:54;;;;;;;7.43;5.28;;;;;;;;;;10475991;28;20025;-73
2022/04/11 16:27:55;;;;;;;9.63;4.10;;;;;;;;;;10437221;28;20032;-78
2022/04/11 16:32:55;;;;;;;9.68;3.70;;;;;;;;;;10453730;28;20559;-76
2022/04/11 16:37:56;;;;;;;6.13;3.03;;;;;;;;;;10444280;28;20108;-72
2022/04/11 16:42:56;;;;;;;4.95;2.75;;;;;;;;;;10456063;28;20036;-73
2022/04/11 16:47:57;;;;;;;6.63;3.67;;;;;;;;;;10448282;28;20086;-71
2022/04/11 16:52:57;;;;;;;6.05;2.90;;;;;;;;;;10445616;28;20439;-78
2022/04/11 16:57:58;;;;;;;3.77;2.63;;;;;;;;;;10453279;28;20356;-70
2022/04/11 17:02:59;;;;;;;8.25;3.10;;;;;;;;;;10453977;28;20028;-70
2022/04/11 17:07:59;;;;;;;5.60;2.97;;;;;;;;;;10447296;28;20506;-68
2022/04/11 17:13:00;;;;;;;8.30;2.90;;;;;;;;;;10453711;28;20033;-69
2022/04/11 17:23:19;;;;;;;4.20;3.63;;;;;;;;;;10464443;28;20040;-74
2022/04/11 17:28:20;;;;;;;4.85;3.58;;;;;;;;;;10447441;28;20028;-71
2022/04/11 17:33:20;;;;;;;14.90;4.30;;;;;;;;;;10450054;28;20028;-70
2022/04/11 17:38:22;;;;;;;11.52;4.15;;;;;;;;;;10421484;28;20079;-71
2022/04/11 17:43:23;;;;;;;10.02;5.03;;;;;;;;;;10445580;28;20044;-70
2022/04/11 17:48:23;;;;;;;5.43;3.80;;;;;;;;;;10459053;28;20571;-74
2022/04/11 17:53:23;;;;;;;7.93;4.20;;;;;;;;;;10455085;28;20036;-73
2022/04/11 17:58:24;;;;;;;10.88;4.28;;;;;;;;;;10445368;28;20520;-70
2022/04/11 18:03:24;;;;;;;15.93;4.40;;;;;;;;;;10457482;28;20024;-72
2022/04/11 18:08:24;;;;;;;9.75;4.35;;;;;;;;;;10446644;28;20045;-77
2022/04/11 18:13:25;;;;;;;7.45;4.35;;;;;;;;;;10455752;28;20044;-72
2022/04/11 18:18:25;;;;;;;8.35;4.47;;;;;;;;;;10459901;28;20016;-71
2022/04/11 18:23:26;;;;;;;7.30;4.40;;;;;;;;;;10432194;28;20039;-74
2022/04/11 18:33:48;;;;;;;7.93;3.88;;;;;;;;;;10448832;28;20025;-71
2022/04/11 18:38:48;;;;;;;7.30;3.90;;;;;;;;;;10434410;28;20115;-70
2022/04/11 18:43:48;;;;;;;10.43;4.20;;;;;;;;;;10436912;28;20028;-69
2022/04/11 18:48:49;;;;;;;6.45;3.55;;;;;;;;;;10423231;28;20024;-69
2022/04/11 18:53:50;;;;;;;5.07;3.63;;;;;;;;;;10438201;28;20035;-69
2022/04/11 18:58:50;;;;;;;7.40;4.40;;;;;;;;;;10439831;28;20108;-70
2022/04/11 19:03:50;;;;;;;4.83;2.93;;;;;;;;;;10442709;28;20028;-71
2022/04/11 19:08:51;;;;;;;5.10;3.60;;;;;;;;;;10462817;28;20051;-72
2022/04/11 19:13:51;;;;;;;4.32;3.58;;;;;;;;;;10450691;28;20056;-71
2022/04/11 19:18:52;;;;;;;6.22;3.95;;;;;;;;;;10467608;28;20040;-76
2022/04/11 19:23:52;;;;;;;6.57;4.40;;;;;;;;;;10488081;28;20560;-72
2022/04/11 19:28:53;;;;;;;6.10;3.67;;;;;;;;;;10469975;28;20020;-72
2022/04/11 19:33:53;;;;;;;5.40;4.90;;;;;;;;;;10470113;28;20107;-71
2022/04/11 19:38:54;;;;;;;7.03;3.50;;;;;;;;;;10469723;28;20025;-70
2022/04/11 19:43:54;;;;;;;4.40;2.93;;;;;;;;;;10458307;28;20029;-71
2022/04/11 19:54:13;;;;;;;8.35;5.43;;;;;;;;;;10484289;28;20099;-74
2022/04/11 19:59:14;;;;;;;4.27;3.70;;;;;;;;;;10448216;28;20504;-70
2022/04/11 20:04:14;;;;;;;4.93;3.43;;;;;;;;;;10457002;28;20267;-77
2022/04/11 20:09:14;;;;;;;5.65;3.95;;;;;;;;;;10463309;28;20477;-74
2022/04/11 20:14:15;;;;;;;6.03;3.20;;;;;;;;;;10457775;28;20567;-70
2022/04/11 20:19:16;;;;;;;5.32;3.33;;;;;;;;;;10453005;28;20016;-70
2022/04/11 20:24:16;;;;;;;7.72;3.13;;;;;;;;;;10454942;28;20024;-68
2022/04/11 20:29:17;;;;;;;3.92;2.55;;;;;;;;;;10441118;28;20499;-74
2022/04/11 20:34:17;;;;;;;2.87;2.50;;;;;;;;;;10429324;28;20029;-70
2022/04/11 20:39:17;;;;;;;8.50;3.35;;;;;;;;;;10444468;28;20024;-72
2022/04/11 20:44:18;;;;;;;6.13;2.78;;;;;;;;;;10438625;28;20041;-68
2022/04/11 20:49:18;;;;;;;6.87;3.37;;;;;;;;;;10437117;28;20033;-71
2022/04/11 20:59:37;;;;;;;3.83;3.40;;;;;;;;;;10443996;28;20029;-76
2022/04/11 21:04:38;;;;;;;5.15;4.30;;;;;;;;;;10431407;28;20021;-74
2022/04/11 21:09:38;;;;;;;5.22;3.75;;;;;;;;;;10407718;28;20424;-72
2022/04/11 21:14:38;;;;;;;3.85;3.40;;;;;;;;;;10404945;28;20472;-73
2022/04/11 21:19:39;;;;;;;7.18;4.28;;;;;;;;;;10400731;28;20021;-73
2022/04/11 21:24:39;;;;;;;5.20;3.65;;;;;;;;;;10408109;28;20120;-70
2022/04/11 21:29:39;;;;;;;5.15;3.97;;;;;;;;;;10387060;28;20029;-74
2022/04/11 21:34:40;;;;;;;8.75;4.53;;;;;;;;;;10401458;28;20095;-73
2022/04/11 21:39:40;;;;;;;7.63;4.88;;;;;;;;;;10412431;28;20086;-71
2022/04/11 21:44:40;;;;;;;7.32;3.28;;;;;;;;;;10403316;28;20028;-71
2022/04/11 21:49:41;;;;;;;7.88;4.05;;;;;;;;;;10408840;28;20025;-69
2022/04/11 21:54:41;;;;;;;9.05;4.13;;;;;;;;;;10403034;28;20060;-69
2022/04/11 21:59:42;;;;;;;6.72;4.28;;;;;;;;;;10458858;22;20136;-68
2022/04/11 22:04:43;;;;;;;7.13;4.40;;;;;;;;;;10387446;28;20416;-68
2022/04/11 22:09:43;;;;;;;7.23;4.23;;;;;;;;;;10387233;28;20025;-75
2022/04/11 22:14:45;;;;;;;6.70;4.23;;;;;;;;;;10405058;28;20371;-70
2022/04/11 22:19:45;;;;;;;7.05;4.63;;;;;;;;;;10403319;28;20029;-71
2022/04/11 22:24:46;;;;;;;7.82;4.20;;;;;;;;;;10403702;28;20094;-71
2022/04/11 22:29:46;;;;;;;6.93;4.53;;;;;;;;;;10404653;28;20033;-76
2022/04/11 22:34:46;;;;;;;6.80;4.85;;;;;;;;;;10428701;28;20283;-71
2022/04/11 22:39:46;;;;;;;10.70;5.50;;;;;;;;;;10429093;28;20032;-72
2022/04/11 22:44:47;;;;;;;9.55;5.78;;;;;;;;;;10428634;28;20026;-71
2022/04/11 22:49:47;;;;;;;7.05;3.85;;;;;;;;;;10424299;28;20438;-71
2022/04/11 22:54:47;;;;;;;7.93;4.60;;;;;;;;;;10426141;28;20051;-76
2022/04/11 22:59:48;;;;;;;8.90;4.25;;;;;;;;;;10449566;28;20052;-70
2022/04/11 23:04:48;;;;;;;9.18;5.28;;;;;;;;;;10433838;28;20094;-70
2022/04/11 23:09:48;;;;;;;10.43;5.60;;;;;;;;;;10471085;28;20028;-77
2022/04/11 23:14:49;;;;;;;6.85;3.92;;;;;;;;;;10457149;28;20029;-70
2022/04/11 23:19:49;;;;;;;10.52;4.97;;;;;;;;;;10448963;28;20032;-70
2022/04/11 23:24:49;;;;;;;10.50;5.17;;;;;;;;;;10470305;28;20032;-69
2022/04/11 23:29:50;;;;;;;8.27;4.45;;;;;;;;;;10468792;28;20286;-72
2022/04/11 23:34:50;;;;;;;9.47;5.20;;;;;;;;;;10449510;28;20320;-71
2022/04/11 23:39:50;;;;;;;9.65;5.30;;;;;;;;;;10448862;28;20028;-70
2022/04/11 23:44:51;;;;;;;7.35;5.10;;;;;;;;;;10445159;28;20025;-72
2022/04/11 23:49:51;;;;;;;7.97;5.00;;;;;;;;;;10455999;28;20045;-70
2022/04/11 23:54:51;;;;;;;8.88;5.90;;;;;;;;;;10440108;28;20029;-76
2022/04/11 23:59:51;;;;;;;7.25;4.97;;;;;;;;;;10448272;28;20048;-71
